Flight Track Log - Related Links

Times and Time Zones

All times are in EDT time to prevent confusion due to time zone crossing. See the N741RA flight status page for this flight to view local times or setup timezone preferences in your user account.

Time Position Orientation Groundspeed Altitude Reporting Facility
EDT Latitude Longitude Course Direction KTS MPH feet Rate Location/Type
Sat 01:44:09 PM 29.0558 -81.1039 110° East 97 112 1,500  Level Jacksonville Center
Sat 01:44:52 PM 29.0492 -81.0828 110° East 96 110 1,600 58 Climbing Jacksonville Center
Sat 01:45:53 PM 29.0322 -81.0569 127° Southeast 102 117 1,600  Level Jacksonville Center
Sat 01:46:48 PM 29.0172 -81.0311 124° Southeast 100 115 1,600 -49 Level Jacksonville Center
Sat 01:47:55 PM 29.0083 -81.0028 110° East 99 114 1,500 -94 Descending Jacksonville Center
Sat 01:48:55 PM 28.9953 -80.9744 118° Southeast 88 101 1,400 45 Descending Jacksonville Center
Sat 01:50:08 PM 28.9783 -80.9486 127° Southeast 86 99 1,600 403 Climbing Jacksonville Center
Sat 01:51:09 PM 28.9592 -80.9325 144° Southeast 84 97 2,300 545 Climbing Jacksonville Center
Sat 01:51:58 PM 28.9425 -80.9208 149° Southeast 89 102 2,600 470 Climbing Jacksonville Center
Sat 01:53:55 PM 28.9000 -80.8833 142° Southeast 98 113 3,600 303 Climbing Orlando TRACON
Sat 01:54:56 PM 28.8667 -80.8833 180° South 96 110 3,500  Descending Orlando TRACON
Sat 01:55:56 PM 28.8500 -80.8667 139° Southeast 97 112 3,600 45 Climbing Orlando TRACON
Sat 01:57:08 PM 28.8167 -80.8667 180° South 96 110 3,600  Level Orlando TRACON
Sat 01:57:56 PM 28.8000 -80.8500 139° Southeast 92 106 3,600  Level Orlando TRACON
Sat 01:58:56 PM 28.7667 -80.8500 180° South 98 113 3,600  Level Orlando TRACON
Sat 01:59:56 PM 28.7500 -80.8500 180° South 93 107 3,600 -50 Level Orlando TRACON
Sat 02:00:56 PM 28.7167 -80.8333 156° South 99 114 3,500  Descending Orlando TRACON
Sat 02:01:51 PM 28.7000 -80.8333 180° South 101 116 3,600 52 Climbing Orlando TRACON
Sat 02:02:51 PM 28.6667 -80.8333 180° South 96 110 3,600 -50 Level Orlando TRACON
Sat 02:03:51 PM 28.6333 -80.8167 156° South 98 113 3,500 -50 Descending Orlando TRACON
Sat 02:04:51 PM 28.6167 -80.8000 139° Southeast 102 117 3,500  Level Orlando TRACON
Sat 02:05:57 PM 28.6000 -80.7833 139° Southeast 90 104 3,500 50 Level Orlando TRACON
Sat 02:06:51 PM 28.5833 -80.7833 180° South 92 106 3,600 53 Climbing Orlando TRACON
Sat 02:07:51 PM 28.5500 -80.7667 156° South 104 120 3,600 -48 Level Orlando TRACON
Sat 02:08:57 PM 28.5167 -80.7667 180° South 97 112 3,500  Descending Orlando TRACON
Sat 02:09:57 PM 28.5000 -80.7667 180° South 97 112 3,600 50 Climbing Orlando TRACON
Sat 02:10:57 PM 28.4667 -80.7667 180° South 101 116 3,600  Level Orlando TRACON
Sat 02:11:58 PM 28.4333 -80.7667 180° South 105 121 3,600 -50 Level Orlando TRACON
Sat 02:12:58 PM 28.4167 -80.7500 139° Southeast 99 114 3,500  Descending Orlando TRACON
Sat 02:13:58 PM 28.3833 -80.7500 180° South 100 115 3,600 53 Climbing Orlando TRACON
Sat 02:14:52 PM 28.3667 -80.7333 139° Southeast 99 114 3,600  Level Orlando TRACON
Sat 02:15:52 PM 28.3333 -80.7167 156° South 95 109 3,600  Level Orlando TRACON
Sat 02:16:58 PM 28.3000 -80.7167 180° South 97 112 3,600 -48 Level Orlando TRACON
Sat 02:17:58 PM 28.2833 -80.7000 139° Southeast 99 114 3,500 -99 Descending Orlando TRACON
Sat 02:18:59 PM 28.2500 -80.7000 180° South 100 115 3,400 -47 Descending Orlando TRACON
Sat 02:20:05 PM 28.2333 -80.6833 139° Southeast 96 110 3,400 50 Level Orlando TRACON
Sat 02:20:59 PM 28.2000 -80.6833 180° South 91 105 3,500 53 Climbing Orlando TRACON
Sat 02:21:59 PM 28.1833 -80.6667 139° Southeast 97 112 3,500 -48 Level Orlando TRACON
Sat 02:23:05 PM 28.1500 -80.6500 156° South 100 115 3,400 -52 Descending Orlando TRACON
Sat 02:23:54 PM 28.1333 -80.6500 180° South 97 112 3,400  Level Orlando TRACON
Sat 02:24:54 PM 28.1000 -80.6333 156° South 98 113 3,400 -48 Level Orlando TRACON
Sat 02:26:00 PM 28.0833 -80.6167 139° Southeast 99 114 3,300 48 Descending Orlando TRACON
Sat 02:27:00 PM 28.0500 -80.6167 180° South 91 105 3,500 91 Climbing Orlando TRACON
Sat 02:28:12 PM 28.0167 -80.6000 156° South 100 115 3,500  Level Orlando TRACON
Sat 02:28:42 PM 28.0094 -80.6103 231° Southwest 96 110 3,500 -67 Level Miami Center
Sat 02:29:42 PM 27.9803 -80.6117 182° South 101 116 3,400 -100 Descending Miami Center
Sat 02:30:42 PM 27.9533 -80.6058 169° South 101 116 3,300 50 Descending Miami Center
Sat 02:31:42 PM 27.9306 -80.5958 159° South 101 116 3,500 100 Climbing Miami Center
Sat 02:32:42 PM 27.9078 -80.5903 168° South 101 116 3,500 -50 Level Miami Center
Sat 02:33:42 PM 27.8767 -80.5800 164° South 106 122 3,400 -100 Descending Miami Center
Sat 02:34:42 PM 27.8519 -80.5697 160° South 106 122 3,300 50 Descending Miami Center
Sat 02:35:42 PM 27.8294 -80.5572 154° Southeast 106 122 3,500 150 Climbing Miami Center
Sat 02:36:42 PM 27.8086 -80.5472 157° South 95 109 3,600 100 Climbing Miami Center

Login

Don't have an account? Register now (free) for customized features, flight alerts, and more!